Pagrindinis puslapis
METAR-TAF:

METAR-TAF

Oro uostai :

Vamdrup

Koldingas, Danija

platuma: 55-26N, ilguma: 009-20E, Aukštis: 44 m

Dabartinis oras

Ataskaita buvo paskelbta 23 minutes, ne 02:20 UTC
Vėjas 2 kt iš Pietryčių
Temperatūra 13°C
Drėgmė 100%
Slėgis 1026 hPa

METAR: EKVD 240220Z AUTO 14002KT //// ///////// 13/13 Q1026

Laikas: 04:43 (02:43 UTC)

Prognozė

Ataskaita buvo paskelbta 14 valandos ir 49 minutes, ne 11:54 UTC
Prognozė galioja nuo 23 metu 12 UTC su 23 metu 16 UTC
Vėjas 12 kt iš Vakarų/Pietvakarių
Matomumas 10 km arba daugiau
Mažai debesys ne aukštis 1200 ft
Išsisklaidę debesys ne aukštis 4000 ft

TAF: EKVD 231154Z 2312/2316 24012KT 9999 FEW012 SCT040

Orai ataskaitas ir orų prognozės (METAR, TAF).

turimą stotys yra geltonos ir raudonos taškus žemėlapyje.

Perkelti pele per norėdami pamatyti stoties vardą.

Tada spustelėkite, norėdami matyti oro stebėjimo ir prognozės.

Norėdami pakeisti žemėlapį: spustelėkite ant žalios mygtukų su juodo kryžiaus žemyn,; žalią mygtuką su brūkšneliu, jei norite nutolinti; arba žalių rodyklių gretimoms žemėlapius.


METAR-TAF: